This is the latest recevied weather packets stored in our database for station/object E22FEY-1. If no packets are shown the sender has not sent any weather packets the latest 10 day(s).
| Time | Temp. | Humidity | Pressure | Rain* | Wind** | Luminosity | Snow |
|---|---|---|---|---|---|---|---|
| 1777735720 | 33.33° C | 61% | 1009 hPa | - | - | 0 W/m² | - |
| 1777734779 | 32.78° C | 63% | 1009 hPa | - | - | 0 W/m² | - |
| 1777734700 | 33.33° C | 63% | 1009 hPa | - | - | 0 W/m² | - |
| 1777734630 | 33.33° C | 62% | 1009 hPa | - | - | 0 W/m² | - |
| 1777733699 | 33.33° C | 61% | 1009 hPa | - | - | 0 W/m² | - |
| 1777732775 | 33.33° C | 62% | 1008 hPa | - | - | 0 W/m² | - |
| 1777731845 | 33.33° C | 62% | 1008 hPa | - | - | 0 W/m² | - |
| 1777731773 | 33.33° C | 62% | 1008 hPa | - | - | 0 W/m² | - |
| 1777730849 | 33.89° C | 59% | 1008 hPa | - | - | 0 W/m² | - |
| 1777729918 | 33.89° C | 58% | 1008 hPa | - | - | 0 W/m² | - |
| 1777728993 | 33.89° C | 57% | 1007 hPa | - | - | 0 W/m² | - |
| 1777728070 | 33.89° C | 57% | 1007 hPa | - | - | 0 W/m² | - |
| 1777727144 | 34.44° C | 55% | 1007 hPa | - | - | 0 W/m² | - |
| 1777726220 | 34.44° C | 55% | 1007 hPa | - | - | 0 W/m² | - |
| 1777725295 | 34.44° C | 55% | 1006 hPa | - | - | 0 W/m² | - |
| 1777724370 | 34.44° C | 53% | 1006 hPa | - | - | 0 W/m² | - |
| 1777723446 | 35° C | 53% | 1006 hPa | - | - | 0 W/m² | - |
| 1777722521 | 35° C | 51% | 1005 hPa | - | - | 0 W/m² | - |
| 1777721597 | 34.44° C | 50% | 1005 hPa | - | - | 0 W/m² | - |
| 1777720673 | 35.56° C | 45% | 1005 hPa | - | - | 0 W/m² | - |
| 1777719748 | 36.67° C | 43% | 1005 hPa | - | - | 0 W/m² | - |
| 1777718823 | 36.67° C | 43% | 1005 hPa | - | - | 0 W/m² | - |
| 1777717899 | 36.67° C | 43% | 1005 hPa | - | - | 0 W/m² | - |
| 1777716975 | 36.67° C | 42% | 1005 hPa | - | - | 0 W/m² | - |
| 1777716050 | 36.67° C | 41% | 1005 hPa | - | - | 0 W/m² | - |
* Rain since midnight (hover to see other rain measurements)
** Current wind speed in m/s (hover to see current wind gust speed)